Time;durP1;ratioP1;P1;durP2;ratioP2;P2;SDS_P1;SDS_P2;PMS_P1;PMS_P2;Temp;Humidity;BMP_temperature;BMP_pressure;BME280_temperature;BME280_humidity;BME280_pressure;Samples;Min_cycle;Max_cycle;Signal;HPM_P1;HPM_P2
2022/10/20 00:03:29;;;;;;;3.38;1.50;;;20.50;72.20;;;;;;10534860;28;20075;-41
2022/10/20 00:08:32;;;;;;;1.42;0.85;;;20.70;72.40;;;;;;10534809;28;20047;-41
2022/10/20 00:13:34;;;;;;;0.93;0.50;;;20.70;72.40;;;;;;10532114;28;20056;-41
2022/10/20 00:18:37;;;;;;;1.90;0.65;;;20.70;72.40;;;;;;10530742;28;20130;-41
2022/10/20 00:23:40;;;;;;;1.27;0.68;;;20.70;72.40;;;;;;10535614;28;20095;-40
2022/10/20 00:28:43;;;;;;;1.45;1.10;;;20.70;72.40;;;;;;10535007;28;20085;-43
2022/10/20 00:33:45;;;;;;;1.75;0.77;;;20.40;72.20;;;;;;10532127;28;20131;-42
2022/10/20 00:38:49;;;;;;;4.20;0.70;;;20.60;72.30;;;;;;10530999;28;20127;-40
2022/10/20 00:43:54;;;;;;;2.03;0.57;;;20.60;72.40;;;;;;10530682;28;20143;-41
2022/10/20 00:49:01;;;;;;;1.50;0.73;;;20.60;72.40;;;;;;10531590;28;20569;-41
2022/10/20 00:54:10;;;;;;;1.58;0.65;;;20.20;72.20;;;;;;10534148;28;20120;-42
2022/10/20 00:59:16;;;;;;;1.83;0.80;;;20.60;72.40;;;;;;10532882;28;20065;-43
2022/10/20 01:04:18;;;;;;;0.70;0.60;;;20.60;72.40;;;;;;10525032;28;20052;-43
2022/10/20 01:09:22;;;;;;;1.50;0.65;;;20.60;72.30;;;;;;10540165;28;20073;-44
2022/10/20 01:14:35;;;;;;;2.50;0.95;;;20.60;72.30;;;;;;10533631;28;20117;-47
2022/10/20 01:20:05;;;;;;;5.03;0.90;;;20.60;72.40;;;;;;10533464;28;20071;-43
2022/10/20 01:25:18;;;;;;;2.05;0.70;;;20.60;72.30;;;;;;10543781;28;20044;-43
2022/10/20 01:30:21;;;;;;;;;;;20.60;72.40;;;;;;10533491;28;20074;-43
2022/10/20 01:35:44;;;;;;;3.58;0.90;;;20.60;72.30;;;;;;10532168;28;20415;-44
2022/10/20 01:40:51;;;;;;;1.08;0.57;;;20.50;72.40;;;;;;10523864;28;20540;-43
2022/10/20 01:45:55;;;;;;;2.75;0.82;;;20.50;72.40;;;;;;10533467;28;20048;-43
2022/10/20 01:50:58;;;;;;;1.30;0.80;;;20.40;72.40;;;;;;10531126;28;20549;-45
2022/10/20 01:56:01;;;;;;;1.85;1.02;;;20.50;72.40;;;;;;10534361;28;20466;-43
2022/10/20 02:01:15;;;;;;;0.93;0.65;;;20.50;72.30;;;;;;10525429;28;20083;-41
2022/10/20 02:06:27;;;;;;;0.95;0.65;;;20.40;72.40;;;;;;10529141;28;20123;-40
2022/10/20 02:11:34;;;;;;;2.45;1.00;;;20.50;72.30;;;;;;10533025;28;20048;-40
2022/10/20 02:16:41;;;;;;;0.80;0.68;;;20.40;72.40;;;;;;10531257;28;20128;-40
2022/10/20 02:21:44;;;;;;;0.88;0.70;;;20.40;72.30;;;;;;10544580;28;20572;-42
2022/10/20 02:26:45;;;;;;;;;;;20.50;72.40;;;;;;10552087;28;20529;-40
2022/10/20 02:31:49;;;;;;;1.00;0.70;;;20.50;72.30;;;;;;10538086;28;19942;-43
2022/10/20 02:36:50;;;;;;;0.95;0.85;;;19.70;72.30;;;;;;10540756;28;20044;-44
2022/10/20 02:41:53;;;;;;;1.80;0.90;;;20.40;72.50;;;;;;10538804;28;20476;-43
2022/10/20 02:46:56;;;;;;;1.70;0.63;;;20.40;72.40;;;;;;10539165;28;20496;-42
2022/10/20 02:51:58;;;;;;;1.45;0.93;;;20.40;72.50;;;;;;10539770;28;20501;-43
2022/10/20 02:57:00;;;;;;;1.30;1.00;;;20.30;73.00;;;;;;10539432;28;20126;-41
2022/10/20 03:02:03;;;;;;;1.83;1.08;;;20.40;72.30;;;;;;10540151;28;20479;-38
2022/10/20 03:07:05;;;;;;;1.65;1.00;;;20.80;72.70;;;;;;10536532;28;20044;-41
2022/10/20 03:12:07;;;;;;;1.25;0.93;;;20.40;72.40;;;;;;10537144;28;20127;-41
2022/10/20 03:17:11;;;;;;;1.55;1.05;;;20.30;72.50;;;;;;10539012;28;20481;-40
2022/10/20 03:22:13;;;;;;;1.58;0.80;;;20.30;72.40;;;;;;10529214;28;20052;-42
2022/10/20 03:27:15;;;;;;;1.85;0.75;;;20.30;72.40;;;;;;10545406;28;20044;-40
2022/10/20 03:32:18;;;;;;;1.42;1.10;;;20.30;72.30;;;;;;10539362;28;20146;-39
2022/10/20 03:37:20;;;;;;;1.95;0.77;;;20.30;72.30;;;;;;10537644;28;20432;-40
2022/10/20 03:42:21;;;;;;;2.50;1.02;;;20.30;72.30;;;;;;10538110;28;20051;-41
2022/10/20 03:47:25;;;;;;;2.17;0.93;;;20.20;72.40;;;;;;10537927;28;20082;-40
2022/10/20 03:52:27;;;;;;;1.08;0.80;;;20.20;72.40;;;;;;10537716;28;20044;-44
2022/10/20 03:57:28;;;;;;;1.60;1.02;;;20.10;72.70;;;;;;10554613;28;20078;-41
2022/10/20 04:02:35;;;;;;;1.10;0.82;;;20.20;72.50;;;;;;10529867;28;20059;-42
2022/10/20 04:07:37;;;;;;;2.65;1.00;;;20.20;72.70;;;;;;10536650;28;20078;-44
2022/10/20 04:12:39;;;;;;;2.35;0.73;;;20.10;72.60;;;;;;10536516;28;20052;-40
2022/10/20 04:17:42;;;;;;;1.90;0.90;;;20.80;73.00;;;;;;10534928;28;20134;-44
2022/10/20 04:22:44;;;;;;;1.83;0.93;;;20.10;72.90;;;;;;10537525;28;20150;-42
2022/10/20 04:27:46;;;;;;;1.00;0.90;;;20.10;72.60;;;;;;10536705;28;20133;-41
2022/10/20 04:32:49;;;;;;;1.40;0.85;;;20.10;72.60;;;;;;10533416;28;20071;-40
2022/10/20 04:37:51;;;;;;;0.93;0.82;;;20.20;72.70;;;;;;10534000;28;20101;-41
2022/10/20 04:42:53;;;;;;;0.82;0.82;;;20.10;72.90;;;;;;10530153;28;20075;-43
2022/10/20 04:47:57;;;;;;;1.08;0.82;;;20.10;72.60;;;;;;10533995;28;20071;-41
2022/10/20 04:52:59;;;;;;;1.38;0.98;;;20.10;73.00;;;;;;10534529;28;20834;-43
2022/10/20 04:58:01;;;;;;;1.77;1.10;;;20.10;73.30;;;;;;10532085;28;20048;-43
2022/10/20 05:03:04;;;;;;;1.30;1.20;;;20.10;72.80;;;;;;10532754;28;20542;-45
2022/10/20 05:08:06;;;;;;;1.13;1.02;;;20.70;73.00;;;;;;10526744;28;20130;-43
2022/10/20 05:13:08;;;;;;;2.92;1.13;;;20.10;72.80;;;;;;10548781;28;20052;-43
2022/10/20 05:18:11;;;;;;;1.92;1.35;;;20.10;73.30;;;;;;10538598;28;20098;-43
2022/10/20 05:23:13;;;;;;;1.40;0.90;;;20.10;73.30;;;;;;10535109;28;20476;-43
2022/10/20 05:28:15;;;;;;;3.55;1.05;;;20.10;73.40;;;;;;10543890;28;20052;-43
2022/10/20 05:33:18;;;;;;;1.75;0.90;;;20.10;73.60;;;;;;10545708;28;20055;-41
2022/10/20 05:38:19;;;;;;;1.40;1.00;;;20.10;73.60;;;;;;10518772;28;20131;-41
2022/10/20 05:43:21;;;;;;;1.67;1.20;;;20.10;73.40;;;;;;10529389;28;20051;-44
2022/10/20 05:48:25;;;;;;;2.53;1.10;;;20.00;74.00;;;;;;10534919;28;20043;-44
2022/10/20 05:53:27;;;;;;;1.92;1.10;;;20.20;74.00;;;;;;10538265;28;20040;-41
2022/10/20 05:58:28;;;;;;;;;;;20.10;73.80;;;;;;10535716;28;20078;-46
2022/10/20 06:03:32;;;;;;;1.90;1.00;;;20.20;74.10;;;;;;10532375;28;20028;-41
2022/10/20 06:08:34;;;;;;;1.30;0.90;;;20.10;74.20;;;;;;10529589;28;20105;-42
2022/10/20 06:13:37;;;;;;;4.07;1.75;;;20.10;74.20;;;;;;10510706;28;20641;-42
2022/10/20 06:18:43;;;;;;;2.70;1.50;;;20.10;74.20;;;;;;10517195;28;20471;-43
2022/10/20 06:23:45;;;;;;;5.00;1.30;;;20.20;74.20;;;;;;10535254;28;20545;-42
2022/10/20 06:28:49;;;;;;;1.63;1.02;;;20.20;74.30;;;;;;10529542;28;20445;-40
2022/10/20 06:33:52;;;;;;;1.83;1.30;;;20.20;74.40;;;;;;10528053;28;20409;-42
2022/10/20 06:38:55;;;;;;;2.03;1.25;;;20.20;74.30;;;;;;10534227;28;20135;-44
2022/10/20 06:43:58;;;;;;;;;;;20.20;74.30;;;;;;10528975;28;20522;-45
2022/10/20 06:49:02;;;;;;;3.28;1.20;;;20.10;74.60;;;;;;10528779;28;19958;-42
2022/10/20 06:54:04;;;;;;;3.13;1.23;;;20.30;74.50;;;;;;10529200;28;20077;-40
2022/10/20 06:59:06;;;;;;;;;;;20.20;74.60;;;;;;10528550;28;20072;-37
2022/10/20 07:04:13;;;;;;;3.20;1.40;;;19.80;74.60;;;;;;10523227;28;19924;-43
2022/10/20 07:09:19;;;;;;;3.17;1.48;;;20.20;75.30;;;;;;10531022;28;20086;-43
2022/10/20 07:14:21;;;;;;;6.13;1.55;;;20.20;74.90;;;;;;10534775;28;20044;-43
2022/10/20 07:19:24;;;;;;;3.90;1.35;;;20.20;74.90;;;;;;10534768;28;20488;-41
2022/10/20 07:24:27;;;;;;;3.70;1.65;;;20.20;75.10;;;;;;10545483;28;20113;-40
2022/10/20 07:29:30;;;;;;;6.90;1.67;;;20.20;74.90;;;;;;10537475;28;20078;-43
2022/10/20 07:34:33;;;;;;;2.22;1.52;;;20.20;74.80;;;;;;10526077;28;20452;-39
2022/10/20 07:39:35;;;;;;;5.72;1.30;;;20.20;74.90;;;;;;10533519;28;20067;-46
2022/10/20 07:44:37;;;;;;;2.45;1.40;;;20.20;75.00;;;;;;10532869;28;20059;-44
2022/10/20 07:49:40;;;;;;;4.25;1.58;;;20.00;74.60;;;;;;10536104;28;20075;-40
2022/10/20 07:54:42;;;;;;;2.15;1.45;;;20.20;74.80;;;;;;10534680;28;20092;-37
2022/10/20 07:59:44;;;;;;;2.08;1.23;;;20.20;74.90;;;;;;10528223;28;20055;-41
2022/10/20 08:04:47;;;;;;;1.65;1.48;;;20.20;74.80;;;;;;10535609;28;20493;-41
2022/10/20 08:09:49;;;;;;;4.72;1.70;;;20.20;74.60;;;;;;10532894;28;20075;-41
2022/10/20 08:14:51;;;;;;;6.15;2.67;;;20.20;74.60;;;;;;10534511;28;20079;-43
2022/10/20 08:19:54;;;;;;;4.53;1.70;;;20.30;74.30;;;;;;10532288;28;20392;-40
2022/10/20 08:24:56;;;;;;;3.60;1.98;;;20.10;74.60;;;;;;10534754;28;20459;-41
2022/10/20 08:29:58;;;;;;;4.20;1.60;;;20.30;74.40;;;;;;10532976;28;20493;-41
2022/10/20 08:35:01;;;;;;;1.85;1.65;;;20.20;75.70;;;;;;10526871;28;20071;-43
2022/10/20 08:40:03;;;;;;;2.45;1.63;;;20.00;75.00;;;;;;10532024;28;20075;-44
2022/10/20 08:45:06;;;;;;;3.33;1.80;;;20.20;75.20;;;;;;10533269;28;20090;-50
2022/10/20 08:50:15;;;;;;;9.43;2.92;;;20.20;75.20;;;;;;10528710;28;20429;-46
2022/10/20 08:55:25;;;;;;;3.95;1.85;;;20.20;75.60;;;;;;10536988;28;20071;-42
2022/10/20 09:00:29;;;;;;;3.13;2.03;;;20.20;75.60;;;;;;10534633;28;20040;-44
2022/10/20 09:05:34;;;;;;;3.28;2.15;;;20.20;76.00;;;;;;10535601;28;20130;-43
2022/10/20 09:10:39;;;;;;;4.63;1.80;;;20.20;76.50;;;;;;10538168;28;20131;-42
2022/10/20 09:15:41;;;;;;;2.63;1.85;;;20.20;75.90;;;;;;10541890;28;20094;-44
2022/10/20 09:20:49;;;;;;;7.82;2.05;;;20.20;76.40;;;;;;10539010;28;20087;-46
2022/10/20 09:25:52;;;;;;;2.10;1.75;;;20.30;75.90;;;;;;10537131;28;20074;-44
2022/10/20 09:30:54;;;;;;;2.47;1.67;;;20.30;75.60;;;;;;10544319;28;20547;-42
2022/10/20 09:36:04;;;;;;;3.75;1.80;;;20.30;75.70;;;;;;10534371;28;20071;-43
2022/10/20 09:41:13;;;;;;;6.95;2.10;;;20.30;75.70;;;;;;10523604;28;20056;-41
2022/10/20 09:46:21;;;;;;;3.45;2.45;;;20.10;75.70;;;;;;10516456;28;20397;-41
2022/10/20 09:51:26;;;;;;;3.72;2.20;;;19.90;76.30;;;;;;10531335;28;20043;-41
2022/10/20 09:56:32;;;;;;;4.90;3.40;;;20.10;76.40;;;;;;10541242;28;20079;-42
2022/10/20 10:01:34;;;;;;;3.55;2.60;;;20.00;76.20;;;;;;10529733;28;20147;-42
2022/10/20 10:06:42;;;;;;;4.35;2.42;;;20.20;75.90;;;;;;10530010;28;20127;-42
2022/10/20 10:11:44;;;;;;;3.22;2.20;;;20.30;75.70;;;;;;10529029;28;20151;-44
2022/10/20 10:16:46;;;;;;;2.05;1.70;;;20.40;75.20;;;;;;10530452;28;20047;-39
2022/10/20 10:21:54;;;;;;;9.05;1.92;;;20.30;76.00;;;;;;10538761;28;20060;-47
2022/10/20 10:26:57;;;;;;;5.65;2.85;;;20.40;75.20;;;;;;10528927;28;20715;-44
2022/10/20 10:32:00;;;;;;;2.85;1.85;;;20.30;75.60;;;;;;10530424;28;20162;-44
2022/10/20 10:37:04;;;;;;;3.33;1.95;;;20.30;75.60;;;;;;10532880;28;20389;-43
2022/10/20 10:42:45;;;;;;;5.93;2.28;;;20.40;75.30;;;;;;10535714;28;20052;-42
2022/10/20 10:48:08;;;;;;;2.83;1.98;;;20.30;76.00;;;;;;10498864;28;20180;-44
2022/10/20 10:53:25;;;;;;;4.07;2.33;;;20.20;76.80;;;;;;10538719;28;20064;-46
2022/10/20 10:58:38;;;;;;;5.40;2.10;;;20.30;76.40;;;;;;10534371;28;20119;-44
2022/10/20 11:04:03;;;;;;;2.72;1.65;;;20.30;76.30;;;;;;10536906;28;20139;-44
2022/10/20 11:09:26;;;;;;;6.05;1.98;;;20.20;76.20;;;;;;10531572;28;20048;-41
2022/10/20 11:14:40;;;;;;;2.33;1.80;;;20.20;76.00;;;;;;10540114;28;20054;-45
2022/10/20 11:19:53;;;;;;;4.75;2.20;;;20.20;75.80;;;;;;10535020;28;20132;-43
2022/10/20 11:25:07;;;;;;;2.83;1.95;;;20.30;75.70;;;;;;10534412;28;20180;-44
2022/10/20 11:30:17;;;;;;;3.78;1.75;;;20.10;76.70;;;;;;10532979;28;20051;-43
2022/10/20 11:35:29;;;;;;;3.00;2.00;;;20.30;76.10;;;;;;10533710;28;20048;-44
2022/10/20 11:40:38;;;;;;;3.35;2.00;;;20.10;76.70;;;;;;10534626;28;20093;-43
2022/10/20 11:45:49;;;;;;;4.07;2.20;;;20.20;76.80;;;;;;10535354;28;20075;-45
2022/10/20 11:51:02;;;;;;;2.65;2.17;;;20.20;77.30;;;;;;10542324;28;20050;-41
2022/10/20 11:56:28;;;;;;;3.47;2.30;;;20.20;77.30;;;;;;10540622;28;20052;-42
2022/10/20 12:01:36;;;;;;;2.40;1.88;;;20.20;77.00;;;;;;10536440;28;20170;-41
2022/10/20 12:06:53;;;;;;;3.85;2.47;;;20.30;76.50;;;;;;10536563;28;20056;-40
2022/10/20 12:12:01;;;;;;;3.58;2.20;;;20.10;76.50;;;;;;10535642;28;20137;-42
2022/10/20 12:17:25;;;;;;;8.15;3.10;;;20.40;76.90;;;;;;10526269;28;20162;-45
2022/10/20 12:22:42;;;;;;;5.72;2.78;;;20.40;77.40;;;;;;10539815;28;20115;-44
2022/10/20 12:27:45;;;;;;;5.60;3.10;;;20.10;78.30;;;;;;10529272;28;20106;-46
2022/10/20 12:33:17;;;;;;;4.07;2.25;;;20.50;79.80;;;;;;10533158;28;20448;-42
2022/10/20 12:38:22;;;;;;;7.05;3.00;;;20.60;77.90;;;;;;10527441;28;20075;-42
2022/10/20 12:43:53;;;;;;;4.68;2.80;;;20.50;78.70;;;;;;10535858;28;20143;-40
2022/10/20 12:48:58;;;;;;;3.90;2.33;;;20.80;77.40;;;;;;10494944;28;20071;-40
2022/10/20 12:54:06;;;;;;;9.18;2.90;;;20.80;77.60;;;;;;10534302;28;20052;-41
2022/10/20 12:59:38;;;;;;;8.13;3.53;;;20.80;80.80;;;;;;10530989;28;20067;-44
2022/10/20 13:04:56;;;;;;;3.25;1.90;;;20.80;78.70;;;;;;10528606;28;20133;-40
2022/10/20 13:09:58;;;;;;;5.15;2.03;;;21.00;77.30;;;;;;10529903;28;20052;-42
2022/10/20 13:15:11;;;;;;;4.60;2.33;;;21.00;77.40;;;;;;10530085;28;20133;-43
2022/10/20 13:20:25;;;;;;;4.00;2.10;;;21.20;76.90;;;;;;10527157;28;20054;-42
2022/10/20 13:25:34;;;;;;;3.90;2.40;;;21.50;77.80;;;;;;10530238;28;20052;-43
2022/10/20 13:30:42;;;;;;;6.90;2.70;;;21.20;78.20;;;;;;10531072;28;20473;-45
2022/10/20 13:35:54;;;;;;;4.75;2.25;;;21.20;78.30;;;;;;10531143;28;20089;-41
2022/10/20 13:41:02;;;;;;;5.97;2.10;;;21.30;78.20;;;;;;10528852;28;20570;-43
2022/10/20 13:46:24;;;;;;;4.75;2.20;;;21.40;80.60;;;;;;10529947;28;20475;-45
2022/10/20 13:51:28;;;;;;;5.05;2.10;;;21.40;77.50;;;;;;10537216;28;20047;-41
2022/10/20 13:56:35;;;;;;;4.97;2.95;;;21.50;78.20;;;;;;10530190;28;20048;-49
2022/10/20 14:01:38;;;;;;;4.18;2.22;;;21.70;78.40;;;;;;10530443;28;20120;-42
2022/10/20 14:06:40;;;;;;;5.05;1.77;;;21.70;77.30;;;;;;10528751;28;20071;-46
2022/10/20 14:11:43;;;;;;;5.63;3.22;;;21.60;77.80;;;;;;10530457;28;20040;-47
2022/10/20 14:16:52;;;;;;;5.55;2.28;;;21.70;79.20;;;;;;10537232;28;20067;-48
2022/10/20 14:21:56;;;;;;;4.30;2.30;;;21.60;79.50;;;;;;10539697;28;20136;-45
2022/10/20 14:27:00;;;;;;;6.32;1.95;;;21.80;77.80;;;;;;10544725;28;20052;-47
2022/10/20 14:32:03;;;;;;;6.78;3.40;;;21.60;77.10;;;;;;10541054;28;20704;-44
2022/10/20 14:37:17;;;;;;;8.25;2.53;;;21.70;78.50;;;;;;10539844;28;20060;-44
2022/10/20 14:42:23;;;;;;;5.97;3.45;;;21.80;77.90;;;;;;10535861;28;20109;-46
2022/10/20 14:47:34;;;;;;;5.18;2.58;;;21.80;78.60;;;;;;10540407;28;20075;-44
2022/10/20 14:52:35;;;;;;;7.18;2.47;;;21.70;79.10;;;;;;10539289;28;20074;-44
2022/10/20 14:57:44;;;;;;;7.82;2.53;;;21.80;82.20;;;;;;10538496;28;20131;-45
2022/10/20 15:02:55;;;;;;;5.05;2.15;;;21.80;78.20;;;;;;10535498;28;20151;-43
2022/10/20 15:07:57;;;;;;;4.95;2.17;;;22.00;77.40;;;;;;10531986;28;20044;-45
2022/10/20 15:12:59;;;;;;;8.80;2.78;;;22.00;77.90;;;;;;10531918;28;20047;-43
2022/10/20 15:18:17;;;;;;;8.60;2.20;;;22.40;77.70;;;;;;10531775;28;20131;-41
2022/10/20 15:23:20;;;;;;;4.47;1.70;;;22.00;77.30;;;;;;10549638;28;20067;-45
2022/10/20 15:28:30;;;;;;;3.97;1.95;;;22.10;76.90;;;;;;10535639;28;20129;-44
2022/10/20 15:33:33;;;;;;;5.22;2.30;;;22.10;77.50;;;;;;10533129;28;20247;-46
2022/10/20 15:38:35;;;;;;;5.28;2.55;;;22.20;78.50;;;;;;10528304;28;20537;-45
2022/10/20 15:43:37;;;;;;;3.78;1.92;;;22.20;77.10;;;;;;10533088;28;20044;-43
2022/10/20 15:48:41;;;;;;;3.45;2.28;;;22.20;78.90;;;;;;10533753;28;20133;-44
2022/10/20 15:53:44;;;;;;;4.82;2.00;;;22.20;77.20;;;;;;10533117;28;20066;-44
2022/10/20 15:58:48;;;;;;;7.95;2.15;;;22.20;76.90;;;;;;10532905;28;20238;-48
2022/10/20 16:03:52;;;;;;;5.70;1.83;;;22.30;76.70;;;;;;10535690;28;20756;-47
2022/10/20 16:08:53;;;;;;;5.13;1.40;;;22.20;76.60;;;;;;10531515;28;20040;-46
2022/10/20 16:13:55;;;;;;;4.63;1.98;;;22.50;77.20;;;;;;10534038;28;20068;-46
2022/10/20 16:18:58;;;;;;;8.40;1.70;;;22.20;77.00;;;;;;10530621;28;20370;-44
2022/10/20 16:24:00;;;;;;;4.82;1.70;;;22.20;76.80;;;;;;10537188;28;20492;-46
2022/10/20 16:29:02;;;;;;;3.50;2.10;;;22.20;76.80;;;;;;10530921;28;20185;-43
2022/10/20 16:34:05;;;;;;;1.95;1.60;;;22.20;77.00;;;;;;10529113;28;20623;-44
2022/10/20 16:39:09;;;;;;;5.80;2.10;;;22.20;76.70;;;;;;10525298;28;20493;-41
2022/10/20 16:44:11;;;;;;;7.82;2.55;;;22.20;77.10;;;;;;10532260;28;20135;-43
2022/10/20 16:49:14;;;;;;;;;;;22.10;77.90;;;;;;10527783;28;20079;-47
2022/10/20 16:54:16;;;;;;;5.50;2.55;;;22.20;77.20;;;;;;10529370;28;19993;-47
2022/10/20 16:59:18;;;;;;;6.70;2.30;;;22.10;77.30;;;;;;10529037;28;20079;-46
2022/10/20 17:04:22;;;;;;;3.95;1.85;;;22.60;77.80;;;;;;10526346;28;20084;-43
2022/10/20 17:09:25;;;;;;;5.28;1.98;;;22.10;78.20;;;;;;10529865;28;20092;-43
2022/10/20 17:14:27;;;;;;;7.63;1.90;;;22.10;78.30;;;;;;10529081;28;20047;-40
2022/10/20 17:19:30;;;;;;;3.33;1.88;;;22.10;78.20;;;;;;10530983;28;20135;-45
2022/10/20 17:24:32;;;;;;;3.22;1.70;;;21.90;78.80;;;;;;10533269;28;20094;-44
2022/10/20 17:29:34;;;;;;;6.07;2.35;;;21.80;79.80;;;;;;10531218;28;20051;-42
2022/10/20 17:34:37;;;;;;;8.77;2.10;;;21.90;79.50;;;;;;10530549;28;20074;-46
2022/10/20 17:39:39;;;;;;;6.30;2.10;;;21.60;80.60;;;;;;10531365;28;20110;-41
2022/10/20 17:44:41;;;;;;;6.95;2.03;;;21.40;79.80;;;;;;10532233;28;20085;-45
2022/10/20 17:49:45;;;;;;;4.68;1.55;;;21.50;80.80;;;;;;10538882;28;20104;-42
2022/10/20 17:54:46;;;;;;;5.85;1.80;;;21.90;81.40;;;;;;10531511;28;20040;-45
2022/10/20 17:59:49;;;;;;;3.95;2.08;;;21.50;80.60;;;;;;10524950;28;20102;-47
2022/10/20 18:04:52;;;;;;;3.03;1.77;;;21.20;82.40;;;;;;10537618;28;20044;-44
2022/10/20 18:09:54;;;;;;;6.15;2.13;;;21.60;80.10;;;;;;10530693;28;20666;-42
2022/10/20 18:14:56;;;;;;;5.25;1.80;;;21.80;79.10;;;;;;10529666;28;20400;-43
2022/10/20 18:19:59;;;;;;;3.50;1.52;;;21.80;78.80;;;;;;10521362;28;20138;-43
2022/10/20 18:25:01;;;;;;;3.70;2.03;;;21.80;78.80;;;;;;10542141;28;20051;-47
2022/10/20 18:30:03;;;;;;;3.47;1.70;;;21.80;79.10;;;;;;10529979;28;20052;-46
2022/10/20 18:35:07;;;;;;;3.83;1.85;;;21.80;79.10;;;;;;10530229;28;20149;-46
2022/10/20 18:40:10;;;;;;;1.80;1.30;;;21.70;79.20;;;;;;10529765;28;20044;-43
2022/10/20 18:45:12;;;;;;;4.03;1.58;;;21.80;79.00;;;;;;10529225;28;20560;-45
2022/10/20 18:50:15;;;;;;;3.25;1.83;;;21.80;79.20;;;;;;10529121;28;20048;-41
2022/10/20 18:55:17;;;;;;;4.07;1.70;;;21.70;79.30;;;;;;10528215;28;20086;-42
2022/10/20 19:00:19;;;;;;;3.63;1.50;;;21.80;79.30;;;;;;10529427;28;20413;-44
2022/10/20 19:05:22;;;;;;;2.45;1.20;;;21.70;79.60;;;;;;10535960;28;20044;-43
2022/10/20 19:10:24;;;;;;;4.10;1.70;;;21.80;80.00;;;;;;10535760;28;20173;-40
2022/10/20 19:15:26;;;;;;;3.53;1.58;;;21.80;79.90;;;;;;10536230;28;20079;-41
2022/10/20 19:20:31;;;;;;;5.97;1.90;;;21.80;80.50;;;;;;10534512;28;20055;-42
2022/10/20 19:25:33;;;;;;;9.70;1.98;;;21.80;80.20;;;;;;10537663;28;20044;-43
2022/10/20 19:30:35;;;;;;;6.03;1.63;;;21.80;80.20;;;;;;10531919;28;20601;-41
2022/10/20 19:35:38;;;;;;;4.15;1.60;;;21.70;80.10;;;;;;10528261;28;20135;-46
2022/10/20 19:40:40;;;;;;;2.80;1.90;;;21.70;80.00;;;;;;10530764;28;20138;-45
2022/10/20 19:45:42;;;;;;;5.80;1.75;;;21.70;80.10;;;;;;10529265;28;20075;-45
2022/10/20 19:50:45;;;;;;;4.22;1.88;;;21.70;79.80;;;;;;10535552;28;20129;-40
2022/10/20 19:55:48;;;;;;;3.63;2.00;;;21.60;79.90;;;;;;10541987;28;20048;-42
2022/10/20 20:00:52;;;;;;;5.25;1.88;;;21.60;79.80;;;;;;10540822;28;20048;-44
2022/10/20 20:05:59;;;;;;;4.90;1.83;;;21.60;79.80;;;;;;10527618;28;20158;-42
2022/10/20 20:11:03;;;;;;;3.92;1.60;;;21.60;79.60;;;;;;10533139;28;20078;-43
2022/10/20 20:16:06;;;;;;;4.22;2.08;;;21.20;79.50;;;;;;10530086;28;20139;-40
2022/10/20 20:21:10;;;;;;;10.82;2.15;;;21.60;79.80;;;;;;10526337;28;20083;-45
2022/10/20 20:26:12;;;;;;;4.47;1.77;;;21.60;79.80;;;;;;10539862;28;20059;-41
2022/10/20 20:31:13;;;;;;;;;;;21.60;80.30;;;;;;10539577;28;20216;-42
2022/10/20 20:36:17;;;;;;;4.32;1.48;;;21.60;80.00;;;;;;10534909;28;20408;-43
2022/10/20 20:41:19;;;;;;;4.75;1.75;;;21.60;79.90;;;;;;10529190;28;20547;-41
2022/10/20 20:46:22;;;;;;;;;;;21.60;79.80;;;;;;10535713;28;20062;-46
2022/10/20 20:51:25;;;;;;;;;;;21.50;80.10;;;;;;10523814;28;19955;-42
2022/10/20 20:56:27;;;;;;;5.13;1.50;;;21.50;80.20;;;;;;10538902;28;19924;-45
2022/10/20 21:01:31;;;;;;;5.45;1.80;;;21.50;80.20;;;;;;10529693;28;20478;-43
2022/10/20 21:06:36;;;;;;;4.65;1.77;;;21.50;80.20;;;;;;10530699;28;20501;-44
2022/10/20 21:11:38;;;;;;;4.15;2.00;;;21.50;80.40;;;;;;10534556;28;20063;-42
2022/10/20 21:16:40;;;;;;;2.63;1.95;;;21.50;80.50;;;;;;10532268;28;20466;-41
2022/10/20 21:21:49;;;;;;;3.72;1.92;;;21.40;80.60;;;;;;10523230;28;20058;-43
2022/10/20 21:26:51;;;;;;;5.35;1.75;;;21.40;80.60;;;;;;10522867;28;20401;-41
2022/10/20 21:31:53;;;;;;;3.85;1.77;;;21.40;80.60;;;;;;10530773;28;20080;-45
2022/10/20 21:36:57;;;;;;;3.88;2.55;;;21.40;80.70;;;;;;10533340;28;20063;-41
2022/10/20 21:41:59;;;;;;;2.38;1.70;;;21.40;80.70;;;;;;10532892;28;20051;-43
2022/10/20 21:47:00;;;;;;;5.50;1.70;;;21.50;80.70;;;;;;10510040;28;20139;-43
2022/10/20 21:52:05;;;;;;;3.28;2.00;;;21.40;80.70;;;;;;10531892;28;20044;-42
2022/10/20 21:57:07;;;;;;;5.72;1.90;;;21.70;80.90;;;;;;10530765;28;20083;-45
2022/10/20 22:02:12;;;;;;;3.13;1.77;;;21.30;81.00;;;;;;10531781;28;20097;-41
2022/10/20 22:07:15;;;;;;;3.90;1.83;;;21.30;80.90;;;;;;10544028;28;20059;-42
2022/10/20 22:12:17;;;;;;;5.47;1.90;;;21.30;80.70;;;;;;10528253;28;20641;-42
2022/10/20 22:17:20;;;;;;;4.03;2.08;;;21.70;81.10;;;;;;10537786;28;20052;-45
2022/10/20 22:22:23;;;;;;;5.13;1.80;;;21.30;81.00;;;;;;10538396;28;20108;-42
2022/10/20 22:27:25;;;;;;;5.65;1.83;;;21.30;81.10;;;;;;10529504;28;20140;-42
2022/10/20 22:32:27;;;;;;;2.88;1.67;;;21.30;81.10;;;;;;10530278;28;20076;-45
2022/10/20 22:37:30;;;;;;;7.18;2.25;;;21.30;81.00;;;;;;10540715;28;20089;-41
2022/10/20 22:42:32;;;;;;;2.60;1.95;;;21.30;81.00;;;;;;10541034;28;20047;-43
2022/10/20 22:47:34;;;;;;;4.43;1.58;;;21.20;81.10;;;;;;10546138;28;20139;-43
2022/10/20 22:52:37;;;;;;;2.78;1.73;;;21.30;81.10;;;;;;10549064;28;20055;-41
2022/10/20 22:57:38;;;;;;;4.47;2.03;;;21.20;81.00;;;;;;10537638;28;20075;-39
2022/10/20 23:02:40;;;;;;;2.92;1.60;;;21.30;81.00;;;;;;10542705;28;20101;-42
2022/10/20 23:07:43;;;;;;;3.90;2.00;;;21.20;81.10;;;;;;10545164;28;20106;-43
2022/10/20 23:12:45;;;;;;;2.33;1.83;;;21.20;81.10;;;;;;10546047;28;20039;-43
2022/10/20 23:17:47;;;;;;;6.38;1.95;;;21.20;81.10;;;;;;10535738;28;20040;-41
2022/10/20 23:22:50;;;;;;;3.00;1.83;;;21.40;81.20;;;;;;10550509;28;20610;-42
2022/10/20 23:27:52;;;;;;;5.25;1.98;;;21.20;81.20;;;;;;10544980;28;20159;-43
2022/10/20 23:32:54;;;;;;;3.78;1.70;;;21.20;81.10;;;;;;10539383;28;20056;-41
2022/10/20 23:37:57;;;;;;;6.38;2.05;;;21.20;81.20;;;;;;10532479;28;20139;-40
2022/10/20 23:42:59;;;;;;;5.20;1.65;;;21.10;81.40;;;;;;10532417;28;20078;-40
2022/10/20 23:48:01;;;;;;;4.25;1.42;;;21.20;81.30;;;;;;10534989;28;20101;-41
2022/10/20 23:53:04;;;;;;;5.53;1.95;;;21.10;81.40;;;;;;10545442;28;20094;-41
2022/10/20 23:58:06;;;;;;;3.63;1.88;;;21.10;81.70;;;;;;10540987;28;20040;-42
